sensor_id;sensor_type;location;lat;lon;timestamp;pressure;altitude;pressure_sealevel;temperature;humidity
59289;BME280;45056;47.602;9.886;2023-07-02T00:05:03;92607.44;;;17.64;69.40
59289;BME280;45056;47.602;9.886;2023-07-02T00:08:35;92604.22;;;17.66;69.44
59289;BME280;45056;47.602;9.886;2023-07-02T00:11:42;92593.22;;;17.66;69.27
59289;BME280;45056;47.602;9.886;2023-07-02T00:34:04;92581.44;;;17.65;69.61
59289;BME280;45056;47.602;9.886;2023-07-02T00:45:15;92599.44;;;17.66;69.62
59289;BME280;45056;47.602;9.886;2023-07-02T00:47:45;92586.94;;;17.65;69.94
59289;BME280;45056;47.602;9.886;2023-07-02T00:50:13;92595.97;;;17.66;70.04
59289;BME280;45056;47.602;9.886;2023-07-02T00:52:42;92597.72;;;17.69;70.04
59289;BME280;45056;47.602;9.886;2023-07-02T00:55:10;92605.97;;;17.69;70.23
59289;BME280;45056;47.602;9.886;2023-07-02T00:57:41;92612.72;;;17.68;70.36
59289;BME280;45056;47.602;9.886;2023-07-02T01:01:01;92605.94;;;17.63;70.43
59289;BME280;45056;47.602;9.886;2023-07-02T01:04:04;92600.66;;;17.59;70.42
59289;BME280;45056;47.602;9.886;2023-07-02T01:06:42;92595.91;;;17.54;70.57
59289;BME280;45056;47.602;9.886;2023-07-02T01:09:32;92596.16;;;17.51;70.86
59289;BME280;45056;47.602;9.886;2023-07-02T01:12:33;92594.66;;;17.50;70.78
59289;BME280;45056;47.602;9.886;2023-07-02T01:15:11;92589.16;;;17.50;71.11
59289;BME280;45056;47.602;9.886;2023-07-02T01:39:08;92589.63;;;17.42;72.48
59289;BME280;45056;47.602;9.886;2023-07-02T01:42:40;92587.38;;;17.41;72.65
59289;BME280;45056;47.602;9.886;2023-07-02T01:46:07;92594.59;;;17.38;73.04
59289;BME280;45056;47.602;9.886;2023-07-02T01:49:37;92595.59;;;17.35;73.03
59289;BME280;45056;47.602;9.886;2023-07-02T01:52:39;92604.09;;;17.37;73.19
59289;BME280;45056;47.602;9.886;2023-07-02T01:59:49;92608.56;;;17.29;72.89
59289;BME280;45056;47.602;9.886;2023-07-02T02:07:07;92611.28;;;17.23;72.33
59289;BME280;45056;47.602;9.886;2023-07-02T02:19:23;92602.50;;;17.13;72.21
59289;BME280;45056;47.602;9.886;2023-07-02T02:30:32;92605.25;;;17.13;71.78
59289;BME280;45056;47.602;9.886;2023-07-02T02:33:37;92604.75;;;17.15;71.86
59289;BME280;45056;47.602;9.886;2023-07-02T02:48:31;92584.53;;;17.18;71.58
59289;BME280;45056;47.602;9.886;2023-07-02T02:51:19;92593.53;;;17.19;71.63
59289;BME280;45056;47.602;9.886;2023-07-02T02:54:42;92597.53;;;17.18;71.67
59289;BME280;45056;47.602;9.886;2023-07-02T02:57:24;92604.00;;;17.14;71.84
59289;BME280;45056;47.602;9.886;2023-07-02T02:59:52;92602.00;;;17.15;72.03
59289;BME280;45056;47.602;9.886;2023-07-02T03:02:36;92605.00;;;17.17;72.25
59289;BME280;45056;47.602;9.886;2023-07-02T03:05:17;92608.53;;;17.18;72.21
59289;BME280;45056;47.602;9.886;2023-07-02T03:12:14;92619.44;;;17.06;72.83
59289;BME280;45056;47.602;9.886;2023-07-02T03:15:17;92613.94;;;17.00;73.07
59289;BME280;45056;47.602;9.886;2023-07-02T03:18:19;92604.16;;;16.99;73.17
59289;BME280;45056;47.602;9.886;2023-07-02T03:21:25;92608.94;;;16.99;73.12
59289;BME280;45056;47.602;9.886;2023-07-02T03:24:25;92611.38;;;16.97;73.38
59289;BME280;45056;47.602;9.886;2023-07-02T03:27:15;92621.16;;;16.98;73.27
59289;BME280;45056;47.602;9.886;2023-07-02T03:29:43;92617.91;;;16.99;73.42
59289;BME280;45056;47.602;9.886;2023-07-02T03:32:22;92626.16;;;16.99;73.45
59289;BME280;45056;47.602;9.886;2023-07-02T03:35:29;92629.19;;;17.01;73.39
59289;BME280;45056;47.602;9.886;2023-07-02T03:38:36;92636.41;;;16.99;73.59
59289;BME280;45056;47.602;9.886;2023-07-02T03:42:22;92636.13;;;16.97;73.49
59289;BME280;45056;47.602;9.886;2023-07-02T03:48:08;92647.84;;;16.97;73.61
59289;BME280;45056;47.602;9.886;2023-07-02T03:50:39;92643.16;;;16.98;73.52
59289;BME280;45056;47.602;9.886;2023-07-02T03:53:07;92633.66;;;16.99;73.47
59289;BME280;45056;47.602;9.886;2023-07-02T03:55:36;92641.91;;;16.99;73.47
59289;BME280;45056;47.602;9.886;2023-07-02T04:07:02;92661.13;;;16.99;73.03
59289;BME280;45056;47.602;9.886;2023-07-02T04:10:05;92664.06;;;16.95;72.87
59289;BME280;45056;47.602;9.886;2023-07-02T04:12:58;92663.34;;;16.95;73.10
59289;BME280;45056;47.602;9.886;2023-07-02T04:15:44;92670.34;;;16.96;73.09
59289;BME280;45056;47.602;9.886;2023-07-02T04:18:36;92673.56;;;16.94;73.23
59289;BME280;45056;47.602;9.886;2023-07-02T04:21:22;92679.06;;;16.94;73.28
59289;BME280;45056;47.602;9.886;2023-07-02T04:24:19;92679.31;;;16.96;73.24
59289;BME280;45056;47.602;9.886;2023-07-02T04:27:20;92684.38;;;16.98;72.77
59289;BME280;45056;47.602;9.886;2023-07-02T04:33:33;92694.56;;;16.97;72.65
59289;BME280;45056;47.602;9.886;2023-07-02T04:36:16;92689.84;;;16.98;72.99
59289;BME280;45056;47.602;9.886;2023-07-02T04:39:20;92696.88;;;16.99;72.67
59289;BME280;45056;47.602;9.886;2023-07-02T04:41:48;92696.56;;;16.97;72.46
59289;BME280;45056;47.602;9.886;2023-07-02T04:44:19;92710.25;;;16.91;72.33
59289;BME280;45056;47.602;9.886;2023-07-02T04:46:49;92700.75;;;16.86;72.17
59289;BME280;45056;47.602;9.886;2023-07-02T04:49:17;92707.19;;;16.83;72.41
59289;BME280;45056;47.602;9.886;2023-07-02T04:51:48;92707.44;;;16.80;71.96
59289;BME280;45056;47.602;9.886;2023-07-02T04:54:24;92716.66;;;16.77;72.21
59289;BME280;45056;47.602;9.886;2023-07-02T04:57:03;92718.09;;;16.72;72.23
59289;BME280;45056;47.602;9.886;2023-07-02T04:59:41;92709.81;;;16.66;72.27
59289;BME280;45056;47.602;9.886;2023-07-02T05:02:19;92718.28;;;16.63;72.13
59289;BME280;45056;47.602;9.886;2023-07-02T05:04:55;92726.72;;;16.59;72.03
59289;BME280;45056;47.602;9.886;2023-07-02T05:07:34;92717.00;;;16.58;72.14
59289;BME280;45056;47.602;9.886;2023-07-02T05:13:43;92723.78;;;16.63;72.47
59289;BME280;45056;47.602;9.886;2023-07-02T05:16:37;92714.78;;;16.62;72.47
59289;BME280;45056;47.602;9.886;2023-07-02T05:19:05;92718.28;;;16.63;72.14
59289;BME280;45056;47.602;9.886;2023-07-02T05:21:33;92716.28;;;16.63;72.05
59289;BME280;45056;47.602;9.886;2023-07-02T05:24:01;92723.78;;;16.63;71.96
59289;BME280;45056;47.602;9.886;2023-07-02T05:26:37;92730.28;;;16.65;71.72
59289;BME280;45056;47.602;9.886;2023-07-02T05:29:05;92721.56;;;16.67;71.78
59289;BME280;45056;47.602;9.886;2023-07-02T05:32:07;92730.06;;;16.69;71.80
59289;BME280;45056;47.602;9.886;2023-07-02T05:34:56;92734.59;;;16.72;71.79
59289;BME280;45056;47.602;9.886;2023-07-02T05:37:32;92726.13;;;16.76;71.41
59289;BME280;45056;47.602;9.886;2023-07-02T05:40:13;92732.63;;;16.78;71.44
59289;BME280;45056;47.602;9.886;2023-07-02T05:43:17;92743.88;;;16.80;71.18
59289;BME280;45056;47.602;9.886;2023-07-02T05:46:08;92734.41;;;16.81;70.60
59289;BME280;45056;47.602;9.886;2023-07-02T05:53:05;92735.66;;;16.80;69.60
59289;BME280;45056;47.602;9.886;2023-07-02T05:56:30;92745.13;;;16.79;69.52
59289;BME280;45056;47.602;9.886;2023-07-02T05:59:45;92753.38;;;16.79;68.84
59289;BME280;45056;47.602;9.886;2023-07-02T06:02:46;92751.41;;;16.80;68.56
59289;BME280;45056;47.602;9.886;2023-07-02T06:05:15;92753.88;;;16.78;68.83
59289;BME280;45056;47.602;9.886;2023-07-02T06:07:43;92755.59;;;16.75;68.55
59289;BME280;45056;47.602;9.886;2023-07-02T06:10:11;92761.09;;;16.75;68.47
59289;BME280;45056;47.602;9.886;2023-07-02T06:12:42;92764.34;;;16.73;67.95
59289;BME280;45056;47.602;9.886;2023-07-02T06:15:41;92764.81;;;16.72;68.02
59289;BME280;45056;47.602;9.886;2023-07-02T06:18:13;92771.81;;;16.73;68.07
59289;BME280;45056;47.602;9.886;2023-07-02T06:20:43;92772.06;;;16.75;67.78
59289;BME280;45056;47.602;9.886;2023-07-02T06:23:14;92781.81;;;16.76;67.58
59289;BME280;45056;47.602;9.886;2023-07-02T06:25:43;92788.34;;;16.79;67.60
59289;BME280;45056;47.602;9.886;2023-07-02T06:28:13;92779.59;;;16.80;67.48
59289;BME280;45056;47.602;9.886;2023-07-02T06:30:47;92786.59;;;16.81;67.61
59289;BME280;45056;47.602;9.886;2023-07-02T06:33:15;92781.13;;;16.81;67.36
59289;BME280;45056;47.602;9.886;2023-07-02T06:35:43;92783.13;;;16.81;67.29
59289;BME280;45056;47.602;9.886;2023-07-02T06:38:12;92790.59;;;16.80;67.24
59289;BME280;45056;47.602;9.886;2023-07-02T06:47:21;92791.91;;;16.85;67.48
59289;BME280;45056;47.602;9.886;2023-07-02T06:49:51;92796.91;;;16.86;67.51
59289;BME280;45056;47.602;9.886;2023-07-02T06:52:29;92794.44;;;16.88;67.30
59289;BME280;45056;47.602;9.886;2023-07-02T06:54:57;92791.69;;;16.88;67.18
59289;BME280;45056;47.602;9.886;2023-07-02T06:57:25;92794.69;;;16.91;67.55
59289;BME280;45056;47.602;9.886;2023-07-02T07:00:00;92801.72;;;16.92;67.58
59289;BME280;45056;47.602;9.886;2023-07-02T07:02:31;92802.44;;;16.92;67.27
59289;BME280;45056;47.602;9.886;2023-07-02T07:04:59;92803.22;;;16.93;67.45
59289;BME280;45056;47.602;9.886;2023-07-02T07:07:32;92805.47;;;16.94;67.60
59289;BME280;45056;47.602;9.886;2023-07-02T07:10:07;92803.75;;;16.97;67.57
59289;BME280;45056;47.602;9.886;2023-07-02T07:12:40;92809.53;;;16.99;67.45
59289;BME280;45056;47.602;9.886;2023-07-02T07:15:08;92805.53;;;17.00;67.41
59289;BME280;45056;47.602;9.886;2023-07-02T07:17:38;92809.81;;;17.01;67.32
59289;BME280;45056;47.602;9.886;2023-07-02T07:20:07;92811.03;;;17.00;67.09
59289;BME280;45056;47.602;9.886;2023-07-02T07:22:35;92807.06;;;17.01;66.92
59289;BME280;45056;47.602;9.886;2023-07-02T07:25:04;92807.59;;;17.05;67.27
59289;BME280;45056;47.602;9.886;2023-07-02T07:27:33;92808.13;;;17.09;66.95
59289;BME280;45056;47.602;9.886;2023-07-02T07:30:06;92802.13;;;17.11;66.84
59289;BME280;45056;47.602;9.886;2023-07-02T07:32:34;92804.38;;;17.12;66.82
59289;BME280;45056;47.602;9.886;2023-07-02T07:35:05;92800.91;;;17.12;66.57
59289;BME280;45056;47.602;9.886;2023-07-02T07:37:33;92799.91;;;17.15;66.51
59289;BME280;45056;47.602;9.886;2023-07-02T07:40:01;92800.19;;;17.17;66.69
59289;BME280;45056;47.602;9.886;2023-07-02T07:42:32;92803.69;;;17.18;66.56
59289;BME280;45056;47.602;9.886;2023-07-02T07:45:01;92810.72;;;17.19;66.62
59289;BME280;45056;47.602;9.886;2023-07-02T07:47:30;92805.94;;;17.19;66.57
59289;BME280;45056;47.602;9.886;2023-07-02T07:49:58;92813.22;;;17.22;66.78
59289;BME280;45056;47.602;9.886;2023-07-02T07:52:29;92811.72;;;17.21;66.48
59289;BME280;45056;47.602;9.886;2023-07-02T07:54:57;92803.97;;;17.20;66.55
59289;BME280;45056;47.602;9.886;2023-07-02T07:57:25;92813.72;;;17.21;66.27
59289;BME280;45056;47.602;9.886;2023-07-02T07:59:53;92813.97;;;17.23;66.66
59289;BME280;45056;47.602;9.886;2023-07-02T08:02:23;92813.22;;;17.22;66.76
59289;BME280;45056;47.602;9.886;2023-07-02T08:04:51;92812.47;;;17.22;66.75
59289;BME280;45056;47.602;9.886;2023-07-02T08:18:56;92816.34;;;17.09;67.77
59289;BME280;45056;47.602;9.886;2023-07-02T08:21:24;92816.63;;;17.11;68.12
59289;BME280;45056;47.602;9.886;2023-07-02T08:23:52;92818.63;;;17.11;67.91
59289;BME280;45056;47.602;9.886;2023-07-02T08:26:20;92825.38;;;17.10;67.81
59289;BME280;45056;47.602;9.886;2023-07-02T08:28:50;92831.34;;;17.08;67.98
59289;BME280;45056;47.602;9.886;2023-07-02T08:31:18;92826.34;;;17.07;68.03
59289;BME280;45056;47.602;9.886;2023-07-02T08:33:46;92840.09;;;17.07;68.29
59289;BME280;45056;47.602;9.886;2023-07-02T08:36:14;92836.56;;;17.06;68.28
59289;BME280;45056;47.602;9.886;2023-07-02T08:38:42;92836.31;;;17.04;68.10
59289;BME280;45056;47.602;9.886;2023-07-02T08:41:10;92832.31;;;17.05;68.06
59289;BME280;45056;47.602;9.886;2023-07-02T08:43:39;92836.56;;;17.06;68.01
59289;BME280;45056;47.602;9.886;2023-07-02T08:46:10;92839.31;;;17.06;67.92
59289;BME280;45056;47.602;9.886;2023-07-02T08:48:39;92833.81;;;17.06;67.53
59289;BME280;45056;47.602;9.886;2023-07-02T08:51:08;92842.31;;;17.02;66.96
59289;BME280;45056;47.602;9.886;2023-07-02T08:53:36;92836.03;;;17.02;66.86
59289;BME280;45056;47.602;9.886;2023-07-02T08:56:04;92841.53;;;17.02;66.82
59289;BME280;45056;47.602;9.886;2023-07-02T08:58:32;92845.53;;;17.01;66.83
59289;BME280;45056;47.602;9.886;2023-07-02T09:01:04;92849.78;;;17.02;66.98
59289;BME280;45056;47.602;9.886;2023-07-02T09:03:36;92845.06;;;17.02;67.14
59289;BME280;45056;47.602;9.886;2023-07-02T09:06:05;92848.81;;;17.05;67.20
59289;BME280;45056;47.602;9.886;2023-07-02T09:08:34;92844.63;;;17.10;66.89
59289;BME280;45056;47.602;9.886;2023-07-02T09:11:09;92852.34;;;17.11;66.75
59289;BME280;45056;47.602;9.886;2023-07-02T09:13:45;92843.84;;;17.09;66.57
59289;BME280;45056;47.602;9.886;2023-07-02T09:16:22;92847.84;;;17.08;66.76
59289;BME280;45056;47.602;9.886;2023-07-02T09:19:02;92850.13;;;17.10;66.63
59289;BME280;45056;47.602;9.886;2023-07-02T09:21:39;92850.13;;;17.10;66.97
59289;BME280;45056;47.602;9.886;2023-07-02T09:24:16;92853.34;;;17.08;67.00
59289;BME280;45056;47.602;9.886;2023-07-02T09:26:45;92845.84;;;17.09;66.89
59289;BME280;45056;47.602;9.886;2023-07-02T09:29:18;92857.84;;;17.11;67.04
59289;BME280;45056;47.602;9.886;2023-07-02T09:31:50;92838.41;;;17.15;67.05
59289;BME280;45056;47.602;9.886;2023-07-02T09:34:19;92850.13;;;17.15;66.93
59289;BME280;45056;47.602;9.886;2023-07-02T09:36:47;92854.69;;;17.19;66.99
59289;BME280;45056;47.602;9.886;2023-07-02T09:39:19;92849.72;;;17.23;67.23
59289;BME280;45056;47.602;9.886;2023-07-02T09:41:50;92851.50;;;17.26;67.24
59289;BME280;45056;47.602;9.886;2023-07-02T09:44:19;92855.81;;;17.33;67.43
59289;BME280;45056;47.602;9.886;2023-07-02T09:46:53;92857.06;;;17.37;67.42
59289;BME280;45056;47.602;9.886;2023-07-02T09:49:31;92856.09;;;17.40;67.51
59289;BME280;45056;47.602;9.886;2023-07-02T09:52:02;92853.34;;;17.40;67.32
59289;BME280;45056;47.602;9.886;2023-07-02T09:54:33;92854.59;;;17.39;67.43
59289;BME280;45056;47.602;9.886;2023-07-02T09:57:03;92845.81;;;17.35;67.45
59289;BME280;45056;47.602;9.886;2023-07-02T09:59:32;92852.34;;;17.38;67.53
59289;BME280;45056;47.602;9.886;2023-07-02T10:02:00;92851.63;;;17.43;67.61
59289;BME280;45056;47.602;9.886;2023-07-02T10:04:40;92856.88;;;17.47;67.26
59289;BME280;45056;47.602;9.886;2023-07-02T10:07:09;92854.44;;;17.49;67.44
59289;BME280;45056;47.602;9.886;2023-07-02T10:09:39;92849.94;;;17.51;67.13
59289;BME280;45056;47.602;9.886;2023-07-02T10:12:18;92851.94;;;17.51;66.82
59289;BME280;45056;47.602;9.886;2023-07-02T10:14:48;92861.69;;;17.52;66.54
59289;BME280;45056;47.602;9.886;2023-07-02T10:17:25;92862.44;;;17.52;66.67
59289;BME280;45056;47.602;9.886;2023-07-02T10:19:57;92860.19;;;17.51;66.74
59289;BME280;45056;47.602;9.886;2023-07-02T10:22:27;92853.94;;;17.50;66.41
59289;BME280;45056;47.602;9.886;2023-07-02T10:24:57;92854.69;;;17.51;66.27
59289;BME280;45056;47.602;9.886;2023-07-02T10:27:33;92859.22;;;17.54;66.23
59289;BME280;45056;47.602;9.886;2023-07-02T10:30:03;92855.25;;;17.60;66.22
59289;BME280;45056;47.602;9.886;2023-07-02T10:32:33;92856.06;;;17.72;65.75
59289;BME280;45056;47.602;9.886;2023-07-02T10:35:13;92855.13;;;17.81;65.58
59289;BME280;45056;47.602;9.886;2023-07-02T10:37:43;92857.16;;;17.86;65.27
59289;BME280;45056;47.602;9.886;2023-07-02T10:40:12;92863.19;;;17.91;64.73
59289;BME280;45056;47.602;9.886;2023-07-02T10:42:47;92846.94;;;17.93;64.36
59289;BME280;45056;47.602;9.886;2023-07-02T10:45:17;92859.50;;;17.99;64.21
59289;BME280;45056;47.602;9.886;2023-07-02T10:47:46;92851.81;;;18.09;64.35
59289;BME280;45056;47.602;9.886;2023-07-02T10:50:18;92851.13;;;18.20;63.75
59289;BME280;45056;47.602;9.886;2023-07-02T10:52:48;92850.41;;;18.25;63.16
59289;BME280;45056;47.602;9.886;2023-07-02T10:55:17;92855.19;;;18.30;63.00
59289;BME280;45056;47.602;9.886;2023-07-02T10:57:47;92858.94;;;18.33;63.04
59289;BME280;45056;47.602;9.886;2023-07-02T11:00:18;92849.44;;;18.34;63.59
59289;BME280;45056;47.602;9.886;2023-07-02T11:02:48;92854.44;;;18.36;63.90
59289;BME280;45056;47.602;9.886;2023-07-02T11:05:17;92851.69;;;18.36;65.15
59289;BME280;45056;47.602;9.886;2023-07-02T11:08:08;92856.47;;;18.35;65.18
59289;BME280;45056;47.602;9.886;2023-07-02T11:11:05;92845.66;;;18.31;65.54
59289;BME280;45056;47.602;9.886;2023-07-02T11:13:34;92847.41;;;18.29;65.81
59289;BME280;45056;47.602;9.886;2023-07-02T11:16:02;92845.41;;;18.29;65.67
59289;BME280;45056;47.602;9.886;2023-07-02T11:18:30;92844.94;;;18.31;65.76
59289;BME280;45056;47.602;9.886;2023-07-02T11:21:09;92841.19;;;18.40;65.81
59289;BME280;45056;47.602;9.886;2023-07-02T11:23:37;92831.69;;;18.46;65.19
59289;BME280;45056;47.602;9.886;2023-07-02T11:26:06;92837.97;;;18.53;65.35
59289;BME280;45056;47.602;9.886;2023-07-02T11:28:34;92836.00;;;18.59;64.42
59289;BME280;45056;47.602;9.886;2023-07-02T11:31:02;92833.25;;;18.65;64.45
59289;BME280;45056;47.602;9.886;2023-07-02T11:33:33;92834.78;;;18.71;64.43
59289;BME280;45056;47.602;9.886;2023-07-02T11:36:04;92825.28;;;18.78;63.62
59289;BME280;45056;47.602;9.886;2023-07-02T11:38:34;92828.56;;;18.94;63.40
59289;BME280;45056;47.602;9.886;2023-07-02T11:41:04;92827.88;;;19.10;63.35
59289;BME280;45056;47.602;9.886;2023-07-02T11:43:32;92827.88;;;19.22;62.77
59289;BME280;45056;47.602;9.886;2023-07-02T11:46:00;92825.09;;;19.33;62.81
59289;BME280;45056;47.602;9.886;2023-07-02T11:48:28;92835.91;;;19.42;61.90
59289;BME280;45056;47.602;9.886;2023-07-02T11:50:56;92829.63;;;19.48;61.89
59289;BME280;45056;47.602;9.886;2023-07-02T11:53:26;92832.63;;;19.55;61.65
59289;BME280;45056;47.602;9.886;2023-07-02T11:55:53;92828.88;;;19.58;61.05
59289;BME280;45056;47.602;9.886;2023-07-02T11:58:21;92825.34;;;19.58;60.72
59289;BME280;45056;47.602;9.886;2023-07-02T12:00:49;92818.56;;;19.59;60.65
59289;BME280;45056;47.602;9.886;2023-07-02T12:03:17;92826.09;;;19.64;61.17
59289;BME280;45056;47.602;9.886;2023-07-02T12:05:45;92823.34;;;19.70;61.11
59289;BME280;45056;47.602;9.886;2023-07-02T12:08:13;92819.81;;;19.75;59.57
59289;BME280;45056;47.602;9.886;2023-07-02T12:10:43;92821.31;;;19.82;58.76
59289;BME280;45056;47.602;9.886;2023-07-02T12:13:11;92821.81;;;19.86;57.91
59289;BME280;45056;47.602;9.886;2023-07-02T12:15:40;92811.53;;;19.92;58.92
59289;BME280;45056;47.602;9.886;2023-07-02T12:18:08;92815.53;;;20.02;58.52
59289;BME280;45056;47.602;9.886;2023-07-02T12:20:39;92817.25;;;20.11;58.54
59289;BME280;45056;47.602;9.886;2023-07-02T12:23:07;92816.50;;;20.16;58.01
59289;BME280;45056;47.602;9.886;2023-07-02T12:25:36;92818.22;;;20.20;57.35
59289;BME280;45056;47.602;9.886;2023-07-02T12:28:05;92810.94;;;20.22;57.05
59289;BME280;45056;47.602;9.886;2023-07-02T12:30:33;92803.63;;;20.30;56.75
59289;BME280;45056;47.602;9.886;2023-07-02T12:33:01;92806.09;;;20.40;56.33
59289;BME280;45056;47.602;9.886;2023-07-02T12:35:30;92812.88;;;20.39;56.13
59289;BME280;45056;47.602;9.886;2023-07-02T12:37:58;92811.38;;;20.38;56.02
59289;BME280;45056;47.602;9.886;2023-07-02T12:40:26;92800.56;;;20.40;55.88
59289;BME280;45056;47.602;9.886;2023-07-02T12:42:53;92809.09;;;20.42;56.35
59289;BME280;45056;47.602;9.886;2023-07-02T12:45:24;92803.56;;;20.42;56.08
59289;BME280;45056;47.602;9.886;2023-07-02T12:47:52;92802.78;;;20.47;56.77
59289;BME280;45056;47.602;9.886;2023-07-02T12:50:20;92801.50;;;20.54;56.27
59289;BME280;45056;47.602;9.886;2023-07-02T12:52:48;92799.22;;;20.64;56.43
59289;BME280;45056;47.602;9.886;2023-07-02T12:55:16;92795.38;;;20.72;56.17
59289;BME280;45056;47.602;9.886;2023-07-02T12:57:44;92796.31;;;20.86;56.54
59289;BME280;45056;47.602;9.886;2023-07-02T13:00:12;92792.72;;;20.97;56.06
59289;BME280;45056;47.602;9.886;2023-07-02T13:02:42;92793.44;;;21.03;55.88
59289;BME280;45056;47.602;9.886;2023-07-02T13:05:10;92798.44;;;21.11;55.42
59289;BME280;45056;47.602;9.886;2023-07-02T13:07:38;92802.38;;;21.21;54.39
59289;BME280;45056;47.602;9.886;2023-07-02T13:10:06;92801.53;;;21.32;53.82
59289;BME280;45056;47.602;9.886;2023-07-02T13:12:35;92791.63;;;21.42;53.15
59289;BME280;45056;47.602;9.886;2023-07-02T13:15:03;92798.63;;;21.49;53.32
59289;BME280;45056;47.602;9.886;2023-07-02T13:17:32;92796.09;;;21.51;52.88
59289;BME280;45056;47.602;9.886;2023-07-02T13:20:01;92796.38;;;21.47;53.00
59289;BME280;45056;47.602;9.886;2023-07-02T13:22:29;92798.44;;;21.41;52.74
59289;BME280;45056;47.602;9.886;2023-07-02T13:24:57;92789.22;;;21.33;52.80
59289;BME280;45056;47.602;9.886;2023-07-02T13:27:25;92796.03;;;21.26;53.21
59289;BME280;45056;47.602;9.886;2023-07-02T13:29:53;92791.81;;;21.19;53.32
59289;BME280;45056;47.602;9.886;2023-07-02T13:32:21;92798.16;;;21.14;53.45
59289;BME280;45056;47.602;9.886;2023-07-02T13:34:49;92798.94;;;21.09;53.72
59289;BME280;45056;47.602;9.886;2023-07-02T13:37:19;92796.44;;;21.05;53.95
59289;BME280;45056;47.602;9.886;2023-07-02T13:39:48;92800.75;;;21.01;53.77
59289;BME280;45056;47.602;9.886;2023-07-02T13:42:16;92796.50;;;21.00;54.40
59289;BME280;45056;47.602;9.886;2023-07-02T13:44:45;92796.97;;;21.04;54.60
59289;BME280;45056;47.602;9.886;2023-07-02T13:47:13;92794.88;;;21.16;54.62
59289;BME280;45056;47.602;9.886;2023-07-02T13:49:41;92797.28;;;21.31;54.60
59289;BME280;45056;47.602;9.886;2023-07-02T13:52:10;92794.63;;;21.44;53.72
59289;BME280;45056;47.602;9.886;2023-07-02T13:54:39;92784.84;;;21.43;53.49
59289;BME280;45056;47.602;9.886;2023-07-02T13:57:07;92792.09;;;21.46;53.11
59289;BME280;45056;47.602;9.886;2023-07-02T13:59:36;92798.34;;;21.53;53.21
59289;BME280;45056;47.602;9.886;2023-07-02T14:02:05;92796.53;;;21.61;52.79
59289;BME280;45056;47.602;9.886;2023-07-02T14:04:33;92793.66;;;21.72;52.31
59289;BME280;45056;47.602;9.886;2023-07-02T14:07:02;92791.34;;;21.76;52.44
59289;BME280;45056;47.602;9.886;2023-07-02T14:09:31;92790.78;;;21.84;52.15
59289;BME280;45056;47.602;9.886;2023-07-02T14:11:59;92795.00;;;21.90;51.87
59289;BME280;45056;47.602;9.886;2023-07-02T14:14:27;92797.94;;;21.98;51.80
59289;BME280;45056;47.602;9.886;2023-07-02T14:16:57;92795.34;;;22.06;50.75
59289;BME280;45056;47.602;9.886;2023-07-02T14:19:25;92794.81;;;22.08;50.39
59289;BME280;45056;47.602;9.886;2023-07-02T14:21:53;92796.53;;;22.11;50.44
59289;BME280;45056;47.602;9.886;2023-07-02T14:24:21;92790.94;;;22.16;50.92
59289;BME280;45056;47.602;9.886;2023-07-02T14:26:50;92792.91;;;22.22;50.89
59289;BME280;45056;47.602;9.886;2023-07-02T14:29:18;92792.63;;;22.25;50.92
59289;BME280;45056;47.602;9.886;2023-07-02T14:31:46;92790.28;;;22.29;50.26
59289;BME280;45056;47.602;9.886;2023-07-02T14:34:15;92797.78;;;22.34;50.35
59289;BME280;45056;47.602;9.886;2023-07-02T14:36:43;92794.41;;;22.42;50.44
59289;BME280;45056;47.602;9.886;2023-07-02T14:39:12;92791.88;;;22.44;49.96
59289;BME280;45056;47.602;9.886;2023-07-02T14:41:40;92789.34;;;22.46;49.71
59289;BME280;45056;47.602;9.886;2023-07-02T14:44:08;92782.06;;;22.43;49.80
59289;BME280;45056;47.602;9.886;2023-07-02T14:46:36;92788.44;;;22.38;50.20
59289;BME280;45056;47.602;9.886;2023-07-02T14:49:04;92790.22;;;22.35;50.36
59289;BME280;45056;47.602;9.886;2023-07-02T14:51:33;92786.94;;;22.37;50.84
59289;BME280;45056;47.602;9.886;2023-07-02T14:54:02;92783.66;;;22.38;49.87
59289;BME280;45056;47.602;9.886;2023-07-02T14:56:32;92779.16;;;22.35;49.77
59289;BME280;45056;47.602;9.886;2023-07-02T14:59:02;92781.22;;;22.29;49.43
59289;BME280;45056;47.602;9.886;2023-07-02T15:01:30;92780.84;;;22.19;49.65
59289;BME280;45056;47.602;9.886;2023-07-02T15:03:58;92792.56;;;22.06;49.33
59289;BME280;45056;47.602;9.886;2023-07-02T15:06:26;92793.72;;;21.91;49.42
59289;BME280;45056;47.602;9.886;2023-07-02T15:08:56;92786.59;;;21.77;49.52
59289;BME280;45056;47.602;9.886;2023-07-02T15:11:25;92786.84;;;21.73;50.05
59289;BME280;45056;47.602;9.886;2023-07-02T15:13:54;92791.59;;;21.79;50.64
59289;BME280;45056;47.602;9.886;2023-07-02T15:16:24;92785.94;;;21.90;50.58
59289;BME280;45056;47.602;9.886;2023-07-02T15:18:52;92789.63;;;21.98;49.58
59289;BME280;45056;47.602;9.886;2023-07-02T15:21:21;92782.00;;;22.04;49.24
59289;BME280;45056;47.602;9.886;2023-07-02T15:23:49;92775.13;;;22.11;49.18
59289;BME280;45056;47.602;9.886;2023-07-02T15:26:19;92785.63;;;22.18;49.12
59289;BME280;45056;47.602;9.886;2023-07-02T15:28:47;92776.50;;;22.24;48.86
59289;BME280;45056;47.602;9.886;2023-07-02T15:31:15;92777.50;;;22.26;49.09
59289;BME280;45056;47.602;9.886;2023-07-02T15:33:43;92777.16;;;22.30;48.73
59289;BME280;45056;47.602;9.886;2023-07-02T15:36:12;92784.75;;;22.29;47.86
59289;BME280;45056;47.602;9.886;2023-07-02T15:38:40;92778.00;;;22.25;47.98
59289;BME280;45056;47.602;9.886;2023-07-02T15:41:10;92778.53;;;22.23;48.28
59289;BME280;45056;47.602;9.886;2023-07-02T15:43:42;92778.75;;;22.25;48.18
59289;BME280;45056;47.602;9.886;2023-07-02T15:46:14;92776.22;;;22.27;48.31
59289;BME280;45056;47.602;9.886;2023-07-02T15:48:44;92776.22;;;22.27;48.33
59289;BME280;45056;47.602;9.886;2023-07-02T15:51:12;92772.69;;;22.27;48.30
59289;BME280;45056;47.602;9.886;2023-07-02T15:53:41;92779.72;;;22.28;48.15
59289;BME280;45056;47.602;9.886;2023-07-02T15:56:09;92770.13;;;22.29;48.37
59289;BME280;45056;47.602;9.886;2023-07-02T15:58:39;92773.66;;;22.29;48.30